Time;durP1;ratioP1;P1;durP2;ratioP2;P2;SDS_P1;SDS_P2;PMS_P1;PMS_P2;Temp;Humidity;BMP_temperature;BMP_pressure;BME280_temperature;BME280_humidity;BME280_pressure;Samples;Min_cycle;Max_cycle;Signal;HPM_P1;HPM_P2
2022/11/26 00:02:16;;;;;;;0.77;0.35;;;;;;;;;;5065300;28;20049;-61
2022/11/26 00:04:42;;;;;;;1.08;0.98;;;;;;;;;;5062119;28;20048;-60
2022/11/26 00:07:12;;;;;;;1.10;0.50;;;;;;;;;;5061098;28;20048;-61
2022/11/26 00:09:38;;;;;;;1.45;0.60;;;;;;;;;;5064117;28;20032;-61
2022/11/26 00:12:19;;;;;;;0.88;0.60;;;;;;;;;;5065677;28;20391;-61
2022/11/26 00:14:46;;;;;;;0.98;0.75;;;;;;;;;;5061375;28;20052;-61
2022/11/26 00:17:12;;;;;;;1.20;0.40;;;;;;;;;;5067468;28;20518;-60
2022/11/26 00:19:39;;;;;;;0.50;0.40;;;;;;;;;;5063612;28;20185;-61
2022/11/26 00:22:06;;;;;;;0.50;0.40;;;;;;;;;;5061636;28;20048;-60
2022/11/26 00:24:32;;;;;;;1.45;0.70;;;;;;;;;;5063203;28;20052;-61
2022/11/26 00:26:59;;;;;;;1.48;0.60;;;;;;;;;;5063321;28;20059;-61
2022/11/26 00:29:25;;;;;;;0.57;0.32;;;;;;;;;;5064098;28;20384;-61
2022/11/26 00:31:51;;;;;;;0.63;0.22;;;;;;;;;;5062817;28;20696;-60
2022/11/26 00:34:17;;;;;;;0.57;0.50;;;;;;;;;;5063002;28;20050;-61
2022/11/26 00:36:43;;;;;;;1.50;0.45;;;;;;;;;;5063582;28;20055;-61
2022/11/26 00:39:12;;;;;;;0.55;0.40;;;;;;;;;;5063268;28;20044;-61
2022/11/26 00:41:39;;;;;;;0.80;0.50;;;;;;;;;;5064661;28;20048;-60
2022/11/26 00:44:16;;;;;;;0.60;0.55;;;;;;;;;;5063807;28;20938;-60
2022/11/26 00:46:42;;;;;;;0.80;0.63;;;;;;;;;;5063571;28;20055;-60
2022/11/26 00:49:07;;;;;;;0.65;0.50;;;;;;;;;;5064323;28;20048;-61
2022/11/26 00:51:34;;;;;;;2.10;0.88;;;;;;;;;;5064053;28;20544;-61
2022/11/26 00:54:01;;;;;;;1.75;0.65;;;;;;;;;;5062969;28;20593;-61
2022/11/26 00:56:27;;;;;;;0.70;0.55;;;;;;;;;;5064375;28;20119;-60
2022/11/26 00:58:53;;;;;;;2.70;0.93;;;;;;;;;;5064209;28;20043;-60
2022/11/26 01:01:20;;;;;;;0.80;0.57;;;;;;;;;;5063929;28;20129;-60
2022/11/26 01:03:47;;;;;;;0.45;0.35;;;;;;;;;;5063888;28;20045;-61
2022/11/26 01:06:23;;;;;;;1.10;0.50;;;;;;;;;;5063674;28;20052;-60
2022/11/26 01:08:50;;;;;;;2.63;0.73;;;;;;;;;;5063382;28;20033;-60
2022/11/26 01:11:17;;;;;;;0.60;0.40;;;;;;;;;;5064131;28;20135;-61
2022/11/26 01:13:44;;;;;;;2.03;0.82;;;;;;;;;;5063363;28;20041;-61
2022/11/26 01:16:18;;;;;;;0.93;0.60;;;;;;;;;;5064291;28;20049;-60
2022/11/26 01:18:45;;;;;;;0.40;0.40;;;;;;;;;;5065746;28;20062;-60
2022/11/26 01:21:11;;;;;;;0.75;0.60;;;;;;;;;;5066581;28;20548;-61
2022/11/26 01:23:37;;;;;;;0.55;0.40;;;;;;;;;;5068192;28;20636;-60
2022/11/26 01:26:03;;;;;;;1.13;0.60;;;;;;;;;;5066919;28;20051;-60
2022/11/26 01:28:29;;;;;;;1.23;0.60;;;;;;;;;;5065519;28;20357;-60
2022/11/26 01:30:55;;;;;;;0.75;0.32;;;;;;;;;;5067189;28;20032;-60
2022/11/26 01:33:21;;;;;;;1.00;0.40;;;;;;;;;;5068235;28;20056;-60
2022/11/26 01:35:47;;;;;;;0.45;0.43;;;;;;;;;;5066585;28;20038;-61
2022/11/26 01:38:14;;;;;;;0.73;0.63;;;;;;;;;;5067521;28;20181;-60
2022/11/26 01:40:59;;;;;;;0.63;0.45;;;;;;;;;;5067204;28;20483;-61
2022/11/26 01:43:31;;;;;;;0.30;0.30;;;;;;;;;;5065026;28;20041;-60
2022/11/26 01:45:57;;;;;;;0.55;0.55;;;;;;;;;;5067161;28;20045;-61
2022/11/26 01:48:26;;;;;;;0.77;0.50;;;;;;;;;;5067699;28;20051;-60
2022/11/26 01:50:54;;;;;;;0.68;0.47;;;;;;;;;;5066728;28;20066;-61
2022/11/26 01:53:27;;;;;;;1.33;0.50;;;;;;;;;;5067867;28;20068;-60
2022/11/26 01:56:10;;;;;;;1.77;0.50;;;;;;;;;;5065987;28;20040;-60
2022/11/26 01:58:38;;;;;;;1.42;0.75;;;;;;;;;;5067237;28;20045;-60
2022/11/26 02:01:05;;;;;;;1.35;0.80;;;;;;;;;;5066989;28;20041;-60
2022/11/26 02:03:33;;;;;;;0.50;0.50;;;;;;;;;;5066628;28;20262;-61
2022/11/26 02:06:01;;;;;;;1.67;0.60;;;;;;;;;;5066611;28;20177;-60
2022/11/26 02:08:28;;;;;;;0.65;0.52;;;;;;;;;;5065187;28;20097;-60
2022/11/26 02:10:54;;;;;;;1.27;0.63;;;;;;;;;;5065668;28;20178;-60
2022/11/26 02:13:20;;;;;;;1.20;0.60;;;;;;;;;;5067481;28;20072;-60
2022/11/26 02:15:50;;;;;;;1.90;0.60;;;;;;;;;;5066682;28;20044;-60
2022/11/26 02:18:16;;;;;;;1.42;0.85;;;;;;;;;;5066267;28;20041;-60
2022/11/26 02:20:56;;;;;;;1.02;0.50;;;;;;;;;;5065552;28;20048;-60
2022/11/26 02:23:39;;;;;;;0.95;0.30;;;;;;;;;;5067104;28;20047;-60
2022/11/26 02:26:24;;;;;;;1.33;0.65;;;;;;;;;;5066167;28;20063;-60
2022/11/26 02:28:50;;;;;;;1.15;1.02;;;;;;;;;;5065810;28;20106;-60
2022/11/26 02:31:28;;;;;;;3.08;1.05;;;;;;;;;;5065654;28;20941;-60
2022/11/26 02:34:01;;;;;;;0.90;0.73;;;;;;;;;;5066393;28;20040;-60
2022/11/26 02:36:47;;;;;;;0.65;0.65;;;;;;;;;;5066679;28;20045;-60
2022/11/26 02:39:18;;;;;;;1.90;0.60;;;;;;;;;;5065599;28;20127;-60
2022/11/26 02:41:45;;;;;;;0.63;0.63;;;;;;;;;;5063344;28;20131;-60
2022/11/26 02:44:12;;;;;;;2.30;0.90;;;;;;;;;;5067529;28;20050;-60
2022/11/26 02:46:39;;;;;;;0.73;0.65;;;;;;;;;;5066226;28;20136;-60
2022/11/26 02:49:06;;;;;;;1.05;0.50;;;;;;;;;;5066468;28;21010;-60
2022/11/26 02:51:33;;;;;;;1.85;0.55;;;;;;;;;;5066212;28;20123;-60
2022/11/26 02:53:59;;;;;;;0.90;0.73;;;;;;;;;;5064970;28;20059;-60
2022/11/26 02:56:27;;;;;;;1.38;0.70;;;;;;;;;;5065412;28;20449;-60
2022/11/26 02:58:54;;;;;;;3.25;0.50;;;;;;;;;;5066062;28;20072;-60
2022/11/26 03:01:28;;;;;;;0.80;0.68;;;;;;;;;;5067027;28;20048;-60
2022/11/26 03:03:57;;;;;;;0.60;0.50;;;;;;;;;;5064593;28;20044;-60
2022/11/26 03:06:23;;;;;;;1.20;0.60;;;;;;;;;;5065941;28;20045;-60
2022/11/26 03:08:49;;;;;;;0.40;0.40;;;;;;;;;;5066103;28;20044;-60
2022/11/26 03:11:16;;;;;;;0.65;0.40;;;;;;;;;;5065772;28;20059;-60
2022/11/26 03:13:42;;;;;;;1.75;0.93;;;;;;;;;;5064941;28;20070;-60
2022/11/26 03:16:08;;;;;;;0.57;0.57;;;;;;;;;;5065787;28;20044;-61
2022/11/26 03:18:34;;;;;;;3.88;0.90;;;;;;;;;;5066409;28;20036;-61
2022/11/26 03:21:00;;;;;;;1.30;0.60;;;;;;;;;;5064509;28;20985;-61
2022/11/26 03:23:26;;;;;;;1.25;0.65;;;;;;;;;;5063563;28;20051;-61
2022/11/26 03:25:52;;;;;;;1.00;0.52;;;;;;;;;;5065607;28;20509;-61
2022/11/26 03:28:18;;;;;;;0.88;0.40;;;;;;;;;;5064809;28;20098;-61
2022/11/26 03:30:44;;;;;;;0.77;0.30;;;;;;;;;;5065368;28;20091;-61
2022/11/26 03:33:10;;;;;;;1.75;0.82;;;;;;;;;;5065470;28;20083;-61
2022/11/26 03:35:35;;;;;;;0.40;0.30;;;;;;;;;;5095814;28;20041;-61
2022/11/26 03:38:01;;;;;;;0.40;0.35;;;;;;;;;;5064505;28;20044;-61
2022/11/26 03:40:27;;;;;;;0.60;0.52;;;;;;;;;;5066742;28;20131;-61
2022/11/26 03:42:53;;;;;;;0.73;0.30;;;;;;;;;;5064689;28;20044;-61
2022/11/26 03:45:19;;;;;;;2.13;0.60;;;;;;;;;;5065117;28;20553;-61
2022/11/26 03:47:45;;;;;;;0.50;0.35;;;;;;;;;;5064889;28;20044;-60
2022/11/26 03:50:11;;;;;;;0.52;0.30;;;;;;;;;;5064455;28;20044;-61
2022/11/26 03:52:37;;;;;;;1.33;0.50;;;;;;;;;;5065538;28;20135;-61
2022/11/26 03:55:04;;;;;;;0.60;0.60;;;;;;;;;;5064692;28;20144;-61
2022/11/26 03:57:30;;;;;;;4.88;0.50;;;;;;;;;;5064709;28;20101;-61
2022/11/26 03:59:56;;;;;;;0.82;0.50;;;;;;;;;;5064547;28;20041;-61
2022/11/26 04:02:21;;;;;;;0.73;0.47;;;;;;;;;;5065810;28;20395;-61
2022/11/26 04:04:48;;;;;;;1.50;0.77;;;;;;;;;;5064405;28;20040;-61
2022/11/26 04:07:14;;;;;;;1.25;0.63;;;;;;;;;;5065432;28;20099;-60
2022/11/26 04:09:40;;;;;;;3.40;1.00;;;;;;;;;;5064081;28;20036;-61
2022/11/26 04:12:06;;;;;;;0.70;0.50;;;;;;;;;;5064405;28;20063;-61
2022/11/26 04:14:32;;;;;;;1.15;0.47;;;;;;;;;;5063699;28;20052;-61
2022/11/26 04:16:58;;;;;;;0.40;0.30;;;;;;;;;;5063711;28;20045;-61
2022/11/26 04:19:24;;;;;;;0.60;0.60;;;;;;;;;;5064748;28;20040;-61
2022/11/26 04:21:50;;;;;;;1.13;0.68;;;;;;;;;;5064886;28;20087;-60
2022/11/26 04:24:16;;;;;;;1.15;0.70;;;;;;;;;;5064013;28;20198;-61
2022/11/26 04:26:42;;;;;;;1.30;0.98;;;;;;;;;;5065046;28;20153;-61
2022/11/26 04:29:08;;;;;;;0.77;0.77;;;;;;;;;;5064608;28;20044;-61
2022/11/26 04:31:34;;;;;;;1.33;0.80;;;;;;;;;;5064088;28;20040;-61
2022/11/26 04:34:00;;;;;;;2.88;1.10;;;;;;;;;;5064099;28;20040;-61
2022/11/26 04:36:26;;;;;;;2.78;1.05;;;;;;;;;;5063176;28;20048;-61
2022/11/26 04:38:52;;;;;;;1.10;0.70;;;;;;;;;;5063850;28;20076;-61
2022/11/26 04:41:18;;;;;;;0.88;0.70;;;;;;;;;;5064530;28;20052;-61
2022/11/26 04:43:44;;;;;;;0.63;0.60;;;;;;;;;;5064842;28;20045;-60
2022/11/26 04:46:10;;;;;;;0.85;0.60;;;;;;;;;;5063571;28;20395;-61
2022/11/26 04:48:36;;;;;;;0.82;0.63;;;;;;;;;;5097167;28;20044;-61
2022/11/26 04:51:02;;;;;;;1.23;0.68;;;;;;;;;;5063336;28;20060;-60
2022/11/26 04:53:28;;;;;;;1.50;0.68;;;;;;;;;;5066905;28;20049;-61
2022/11/26 04:55:54;;;;;;;0.90;0.50;;;;;;;;;;5068776;28;20111;-61
2022/11/26 04:58:20;;;;;;;1.15;0.57;;;;;;;;;;5069242;28;20521;-61
2022/11/26 05:00:46;;;;;;;0.73;0.70;;;;;;;;;;5071021;28;20052;-61
2022/11/26 05:03:13;;;;;;;1.10;0.50;;;;;;;;;;5068209;28;20041;-61
2022/11/26 05:05:39;;;;;;;1.42;0.70;;;;;;;;;;5069478;28;20058;-61
2022/11/26 05:08:05;;;;;;;1.48;0.40;;;;;;;;;;5068784;28;20045;-61
2022/11/26 05:10:31;;;;;;;0.50;0.50;;;;;;;;;;5067982;28;20056;-61
2022/11/26 05:12:57;;;;;;;0.35;0.35;;;;;;;;;;5066808;28;20135;-61
2022/11/26 05:15:23;;;;;;;0.40;0.38;;;;;;;;;;5066599;28;20048;-61
2022/11/26 05:17:49;;;;;;;0.35;0.20;;;;;;;;;;5067778;28;20123;-61
2022/11/26 05:20:15;;;;;;;0.55;0.38;;;;;;;;;;5067215;28;20132;-61
2022/11/26 05:22:42;;;;;;;2.45;0.70;;;;;;;;;;5067536;28;20510;-60
2022/11/26 05:25:08;;;;;;;2.22;1.35;;;;;;;;;;5066879;28;20130;-61
2022/11/26 05:27:34;;;;;;;1.33;0.95;;;;;;;;;;5067474;28;20036;-61
2022/11/26 05:30:00;;;;;;;2.38;0.90;;;;;;;;;;5068017;28;20127;-61
2022/11/26 05:32:26;;;;;;;0.80;0.80;;;;;;;;;;5068464;28;20119;-60
2022/11/26 05:34:52;;;;;;;1.30;0.65;;;;;;;;;;5067922;28;20040;-61
2022/11/26 05:37:18;;;;;;;0.80;0.80;;;;;;;;;;5070690;28;20035;-61
2022/11/26 05:39:44;;;;;;;0.88;0.70;;;;;;;;;;5065722;28;20051;-61
2022/11/26 05:42:10;;;;;;;1.60;0.70;;;;;;;;;;5067178;28;20044;-61
2022/11/26 05:44:37;;;;;;;1.13;0.90;;;;;;;;;;5067817;28;20063;-61
2022/11/26 05:47:03;;;;;;;1.50;1.38;;;;;;;;;;5067757;28;20040;-61
2022/11/26 05:49:29;;;;;;;9.18;2.10;;;;;;;;;;5067297;28;20036;-61
2022/11/26 05:51:55;;;;;;;6.63;2.15;;;;;;;;;;5067693;28;20105;-61
2022/11/26 05:54:21;;;;;;;4.13;2.13;;;;;;;;;;5068542;28;20040;-61
2022/11/26 05:56:47;;;;;;;1.70;1.40;;;;;;;;;;5066808;28;20051;-60
2022/11/26 05:59:13;;;;;;;3.00;1.45;;;;;;;;;;5067801;28;20033;-61
2022/11/26 06:01:39;;;;;;;2.58;1.23;;;;;;;;;;5067191;28;20040;-61
2022/11/26 06:04:05;;;;;;;2.20;1.50;;;;;;;;;;5066504;28;20423;-61
2022/11/26 06:06:31;;;;;;;1.85;1.20;;;;;;;;;;5067556;28;20143;-61
2022/11/26 06:08:57;;;;;;;3.55;1.52;;;;;;;;;;5066936;28;20044;-61
2022/11/26 06:11:23;;;;;;;3.25;1.60;;;;;;;;;;5068773;28;20057;-61
2022/11/26 06:13:50;;;;;;;2.22;1.63;;;;;;;;;;5070769;28;20131;-61
2022/11/26 06:16:16;;;;;;;2.00;1.80;;;;;;;;;;5066301;28;20052;-61
2022/11/26 06:18:42;;;;;;;3.40;1.73;;;;;;;;;;5065920;28;20037;-61
2022/11/26 06:21:09;;;;;;;3.00;1.98;;;;;;;;;;5067095;28;20516;-61
2022/11/26 06:23:35;;;;;;;2.17;1.95;;;;;;;;;;5067045;28;20477;-61
2022/11/26 06:26:01;;;;;;;1.17;1.08;;;;;;;;;;5067199;28;20049;-61
2022/11/26 06:28:27;;;;;;;1.40;1.00;;;;;;;;;;5067136;28;20043;-61
2022/11/26 06:30:53;;;;;;;0.80;0.80;;;;;;;;;;5066084;28;20098;-61
2022/11/26 06:33:19;;;;;;;0.98;0.88;;;;;;;;;;5067697;28;20044;-61
2022/11/26 06:35:45;;;;;;;1.20;0.90;;;;;;;;;;5066992;28;20044;-61
2022/11/26 06:38:11;;;;;;;2.17;0.77;;;;;;;;;;5065887;28;20055;-61
2022/11/26 06:40:37;;;;;;;0.95;0.95;;;;;;;;;;5064883;28;20048;-60
2022/11/26 06:43:03;;;;;;;1.50;0.70;;;;;;;;;;5066066;28;20040;-60
2022/11/26 06:45:29;;;;;;;1.38;0.95;;;;;;;;;;5065992;28;20045;-60
2022/11/26 06:47:55;;;;;;;0.70;0.70;;;;;;;;;;5064750;28;20048;-61
2022/11/26 06:50:22;;;;;;;2.20;0.90;;;;;;;;;;5065989;28;20045;-61
2022/11/26 06:52:51;;;;;;;1.58;0.80;;;;;;;;;;5065192;28;20067;-61
2022/11/26 06:55:18;;;;;;;1.10;0.73;;;;;;;;;;5064896;28;20040;-61
2022/11/26 06:57:44;;;;;;;0.80;0.80;;;;;;;;;;5065685;28;20700;-61
2022/11/26 07:00:10;;;;;;;1.67;1.02;;;;;;;;;;5062736;28;20530;-61
2022/11/26 07:02:37;;;;;;;1.45;0.95;;;;;;;;;;5065543;28;20037;-60
2022/11/26 07:05:03;;;;;;;0.95;0.85;;;;;;;;;;5065663;28;20341;-60
2022/11/26 07:07:29;;;;;;;1.08;0.60;;;;;;;;;;5064379;28;20032;-60
2022/11/26 07:09:55;;;;;;;1.58;0.85;;;;;;;;;;5064107;28;20056;-61
2022/11/26 07:12:21;;;;;;;0.98;0.88;;;;;;;;;;5069033;28;20404;-61
2022/11/26 07:14:47;;;;;;;0.68;0.60;;;;;;;;;;5063907;28;20044;-61
2022/11/26 07:17:13;;;;;;;1.38;1.10;;;;;;;;;;5065000;28;20051;-61
2022/11/26 07:19:39;;;;;;;1.05;0.70;;;;;;;;;;5065362;28;20105;-61
2022/11/26 07:22:05;;;;;;;1.05;0.70;;;;;;;;;;5064502;28;20055;-60
2022/11/26 07:24:31;;;;;;;0.65;0.65;;;;;;;;;;5064689;28;20045;-60
2022/11/26 07:26:57;;;;;;;1.90;1.65;;;;;;;;;;5064028;28;20561;-61
2022/11/26 07:29:23;;;;;;;1.88;1.33;;;;;;;;;;5065652;28;20028;-61
2022/11/26 07:31:49;;;;;;;4.45;2.05;;;;;;;;;;5065386;28;20036;-60
2022/11/26 07:34:15;;;;;;;4.05;2.17;;;;;;;;;;5064298;28;20087;-61
2022/11/26 07:36:42;;;;;;;4.32;2.53;;;;;;;;;;5065475;28;20087;-61
2022/11/26 07:39:08;;;;;;;3.95;2.40;;;;;;;;;;5064874;28;20502;-60
2022/11/26 07:41:34;;;;;;;3.33;2.47;;;;;;;;;;5064613;28;20048;-61
2022/11/26 07:44:00;;;;;;;3.00;2.08;;;;;;;;;;5064931;28;20404;-60
2022/11/26 07:46:26;;;;;;;2.75;1.65;;;;;;;;;;5064939;28;20048;-61
2022/11/26 07:48:53;;;;;;;3.08;2.60;;;;;;;;;;5064331;28;20032;-61
2022/11/26 07:51:21;;;;;;;3.58;2.55;;;;;;;;;;5065451;28;20044;-61
2022/11/26 07:53:48;;;;;;;4.45;2.33;;;;;;;;;;5063650;28;20039;-60
2022/11/26 07:56:14;;;;;;;1.90;1.67;;;;;;;;;;5064239;28;20048;-60
2022/11/26 07:58:40;;;;;;;3.45;1.95;;;;;;;;;;5064724;28;20037;-60
2022/11/26 08:01:35;;;;;;;4.95;2.58;;;;;;;;;;5063741;28;20046;-61
2022/11/26 08:04:04;;;;;;;8.48;3.60;;;;;;;;;;5053552;28;20060;-61
2022/11/26 08:06:30;;;;;;;3.75;2.47;;;;;;;;;;5064721;28;20051;-61
2022/11/26 08:08:58;;;;;;;4.20;3.08;;;;;;;;;;5062960;28;20359;-60
2022/11/26 08:11:25;;;;;;;3.53;2.10;;;;;;;;;;5064247;28;20048;-60
2022/11/26 08:13:52;;;;;;;1.73;1.63;;;;;;;;;;5064537;28;20086;-61
2022/11/26 08:16:19;;;;;;;2.63;1.70;;;;;;;;;;5064016;28;20047;-60
2022/11/26 08:18:44;;;;;;;2.10;1.77;;;;;;;;;;5064476;28;20052;-61
2022/11/26 08:21:10;;;;;;;5.00;2.95;;;;;;;;;;5062684;28;20044;-60
2022/11/26 08:23:36;;;;;;;6.70;3.25;;;;;;;;;;5068179;28;20078;-61
2022/11/26 08:26:12;;;;;;;4.25;2.50;;;;;;;;;;5063723;28;20560;-61
2022/11/26 08:28:38;;;;;;;3.28;2.97;;;;;;;;;;5064870;28;20078;-61
2022/11/26 08:31:06;;;;;;;4.47;2.72;;;;;;;;;;5062524;28;20211;-61
2022/11/26 08:33:32;;;;;;;4.60;2.63;;;;;;;;;;5059456;28;20085;-61
2022/11/26 08:35:59;;;;;;;5.53;2.58;;;;;;;;;;5063401;28;20200;-61
2022/11/26 08:38:26;;;;;;;4.35;2.53;;;;;;;;;;5063537;28;20039;-60
2022/11/26 08:40:53;;;;;;;4.88;2.97;;;;;;;;;;5064314;28;20052;-61
2022/11/26 08:43:19;;;;;;;4.13;2.83;;;;;;;;;;5064850;28;20538;-60
2022/11/26 08:45:51;;;;;;;3.25;2.30;;;;;;;;;;5063621;28;20127;-61
2022/11/26 08:48:17;;;;;;;4.03;2.85;;;;;;;;;;5063686;28;20042;-61
2022/11/26 08:50:43;;;;;;;3.70;2.00;;;;;;;;;;5066085;28;20040;-61
2022/11/26 08:53:09;;;;;;;4.07;2.53;;;;;;;;;;5062956;28;20391;-61
2022/11/26 08:55:35;;;;;;;4.35;2.85;;;;;;;;;;5064156;28;20119;-60
2022/11/26 08:58:01;;;;;;;3.13;2.20;;;;;;;;;;5062165;28;20044;-60
2022/11/26 09:00:27;;;;;;;3.78;2.67;;;;;;;;;;5064424;28;20510;-61
2022/11/26 09:02:53;;;;;;;3.17;2.10;;;;;;;;;;5064597;28;20514;-60
2022/11/26 09:05:19;;;;;;;2.20;2.00;;;;;;;;;;5063596;28;20488;-61
2022/11/26 09:07:46;;;;;;;5.07;2.20;;;;;;;;;;5063344;28;20044;-61
2022/11/26 09:10:12;;;;;;;5.72;3.08;;;;;;;;;;5063619;28;20053;-61
2022/11/26 09:12:38;;;;;;;2.53;2.22;;;;;;;;;;5066878;28;20135;-61
2022/11/26 09:15:04;;;;;;;4.70;2.80;;;;;;;;;;5065571;28;20139;-60
2022/11/26 09:17:30;;;;;;;4.30;3.10;;;;;;;;;;5065189;28;20491;-61
2022/11/26 09:19:56;;;;;;;14.32;4.57;;;;;;;;;;5094088;28;20499;-60
2022/11/26 09:22:22;;;;;;;7.20;3.88;;;;;;;;;;5094225;28;20134;-60
2022/11/26 09:24:48;;;;;;;16.15;6.47;;;;;;;;;;5065847;28;20037;-61
2022/11/26 09:27:14;;;;;;;8.05;4.82;;;;;;;;;;5064193;28;20613;-60
2022/11/26 09:29:40;;;;;;;8.38;5.00;;;;;;;;;;5065475;28;20040;-60
2022/11/26 09:32:08;;;;;;;6.38;4.45;;;;;;;;;;5065487;28;20160;-60
2022/11/26 09:34:34;;;;;;;8.95;5.20;;;;;;;;;;5069188;28;20117;-60
2022/11/26 09:37:00;;;;;;;7.65;4.50;;;;;;;;;;5069879;28;20494;-61
2022/11/26 09:39:27;;;;;;;6.70;4.03;;;;;;;;;;5066933;28;20082;-61
2022/11/26 09:42:00;;;;;;;7.68;4.53;;;;;;;;;;5067830;28;20041;-61
2022/11/26 09:44:30;;;;;;;9.48;4.13;;;;;;;;;;5067773;28;20040;-61
2022/11/26 09:46:56;;;;;;;7.05;4.10;;;;;;;;;;5068893;28;20045;-60
2022/11/26 09:49:23;;;;;;;11.02;4.82;;;;;;;;;;5067335;28;20043;-60
2022/11/26 09:51:51;;;;;;;6.22;4.63;;;;;;;;;;5068683;28;20048;-60
2022/11/26 09:54:19;;;;;;;12.15;5.43;;;;;;;;;;5067856;28;20064;-60
2022/11/26 09:56:46;;;;;;;11.60;5.78;;;;;;;;;;5067816;28;20048;-60
2022/11/26 09:59:14;;;;;;;15.82;5.60;;;;;;;;;;5066818;28;20053;-60
2022/11/26 10:01:41;;;;;;;10.13;5.82;;;;;;;;;;5067995;28;20076;-61
2022/11/26 10:04:08;;;;;;;7.45;4.68;;;;;;;;;;5067718;28;20055;-60
2022/11/26 10:06:53;;;;;;;7.45;4.75;;;;;;;;;;5072751;28;20452;-57
2022/11/26 10:09:37;;;;;;;8.77;4.88;;;;;;;;;;5069816;28;20045;-61
2022/11/26 10:12:22;;;;;;;10.27;4.75;;;;;;;;;;5067348;28;20056;-62
2022/11/26 10:15:07;;;;;;;8.73;4.28;;;;;;;;;;5072744;28;20140;-59
2022/11/26 10:17:42;;;;;;;8.30;4.85;;;;;;;;;;5065824;28;20044;-60
2022/11/26 10:20:29;;;;;;;5.05;3.67;;;;;;;;;;5075924;28;20570;-60
2022/11/26 10:23:02;;;;;;;7.10;3.88;;;;;;;;;;5071903;28;20040;-60
2022/11/26 10:25:30;;;;;;;7.15;3.88;;;;;;;;;;5067485;28;20045;-60
2022/11/26 10:27:58;;;;;;;11.73;5.90;;;;;;;;;;5070757;28;20574;-60
2022/11/26 10:30:26;;;;;;;11.55;5.65;;;;;;;;;;5069055;28;20036;-60
2022/11/26 10:32:53;;;;;;;7.22;5.07;;;;;;;;;;5074857;28;20044;-60
2022/11/26 10:35:21;;;;;;;8.20;4.72;;;;;;;;;;5066921;28;20407;-60
2022/11/26 10:37:47;;;;;;;9.85;4.78;;;;;;;;;;5066653;28;20041;-60
2022/11/26 10:40:25;;;;;;;8.90;5.22;;;;;;;;;;5066839;28;20724;-60
2022/11/26 10:43:03;;;;;;;12.10;6.10;;;;;;;;;;5067953;28;20040;-60
2022/11/26 10:45:40;;;;;;;9.77;5.43;;;;;;;;;;5066112;28;20044;-60
2022/11/26 10:48:16;;;;;;;7.78;4.57;;;;;;;;;;5076879;28;20539;-60
2022/11/26 10:50:43;;;;;;;9.80;6.60;;;;;;;;;;5068549;28;20133;-60
2022/11/26 10:53:22;;;;;;;8.38;4.78;;;;;;;;;;5065820;28;20044;-60
2022/11/26 10:55:48;;;;;;;6.93;4.20;;;;;;;;;;5071963;28;20068;-60
2022/11/26 10:58:16;;;;;;;8.90;5.18;;;;;;;;;;5067878;28;20036;-60
2022/11/26 11:00:54;;;;;;;7.50;4.85;;;;;;;;;;5073060;28;20096;-60
2022/11/26 11:03:21;;;;;;;10.68;4.82;;;;;;;;;;5068264;28;20040;-60
2022/11/26 11:05:47;;;;;;;8.95;4.63;;;;;;;;;;5067500;28;20119;-60
2022/11/26 11:08:29;;;;;;;5.78;4.28;;;;;;;;;;5067961;28;20040;-60
2022/11/26 11:10:57;;;;;;;7.30;4.80;;;;;;;;;;5068788;28;20405;-60
2022/11/26 11:13:24;;;;;;;6.75;4.60;;;;;;;;;;5065678;28;20079;-60
2022/11/26 11:15:59;;;;;;;9.52;5.32;;;;;;;;;;5073077;28;20506;-60
2022/11/26 11:18:25;;;;;;;9.73;5.45;;;;;;;;;;5060854;28;20483;-60
2022/11/26 11:20:55;;;;;;;8.65;5.13;;;;;;;;;;5065922;28;20055;-60
2022/11/26 11:23:31;;;;;;;11.80;5.97;;;;;;;;;;5066793;28;20036;-60
2022/11/26 11:26:05;;;;;;;7.72;4.45;;;;;;;;;;5065604;28;20229;-60
2022/11/26 11:28:38;;;;;;;6.90;4.80;;;;;;;;;;5066015;28;20048;-60
2022/11/26 11:31:04;;;;;;;;;;;;;;;;;;5069564;28;20102;-60
2022/11/26 11:33:30;;;;;;;8.93;5.50;;;;;;;;;;5064414;28;19927;-60
2022/11/26 11:35:57;;;;;;;12.00;5.18;;;;;;;;;;5064523;28;20401;-60
2022/11/26 11:38:24;;;;;;;12.38;5.85;;;;;;;;;;5069023;28;20518;-60
2022/11/26 11:40:50;;;;;;;7.50;5.13;;;;;;;;;;5064395;28;20047;-60
2022/11/26 11:43:18;;;;;;;9.48;5.85;;;;;;;;;;5071938;28;20044;-60
2022/11/26 11:46:07;;;;;;;6.72;4.90;;;;;;;;;;5107485;27;20051;-60
2022/11/26 11:48:42;;;;;;;7.75;5.43;;;;;;;;;;5068235;28;20127;-60
2022/11/26 11:51:27;;;;;;;11.65;4.25;;;;;;;;;;5064727;28;20047;-58
2022/11/26 11:54:01;;;;;;;11.52;5.28;;;;;;;;;;5066494;28;20557;-61
2022/11/26 11:56:49;;;;;;;8.38;4.45;;;;;;;;;;5064967;28;20038;-61
2022/11/26 11:59:21;;;;;;;11.85;6.15;;;;;;;;;;5065113;28;20055;-61
2022/11/26 12:02:03;;;;;;;7.70;5.25;;;;;;;;;;5065202;28;20044;-61
2022/11/26 12:04:47;;;;;;;10.13;5.30;;;;;;;;;;5065903;28;20048;-61
2022/11/26 12:07:22;;;;;;;5.80;4.93;;;;;;;;;;5064066;28;20056;-61
2022/11/26 12:10:04;;;;;;;5.53;4.07;;;;;;;;;;5064664;28;20080;-61
2022/11/26 12:12:32;;;;;;;11.10;6.47;;;;;;;;;;5065040;28;20049;-61
2022/11/26 12:15:03;;;;;;;10.00;5.75;;;;;;;;;;5064368;28;20511;-61
2022/11/26 12:17:32;;;;;;;8.85;7.18;;;;;;;;;;5065176;28;20044;-61
2022/11/26 12:20:03;;;;;;;11.25;6.53;;;;;;;;;;5064700;28;20139;-61
2022/11/26 12:22:41;;;;;;;10.52;6.22;;;;;;;;;;5061480;28;20147;-61
2022/11/26 12:25:18;;;;;;;7.85;5.93;;;;;;;;;;5064470;28;20494;-61
2022/11/26 12:27:46;;;;;;;11.85;6.93;;;;;;;;;;5063730;28;20051;-61
2022/11/26 12:30:13;;;;;;;10.68;6.40;;;;;;;;;;5062437;28;20186;-61
2022/11/26 12:32:44;;;;;;;8.45;5.13;;;;;;;;;;5064626;28;20709;-61
2022/11/26 12:35:14;;;;;;;11.77;6.47;;;;;;;;;;5070739;28;20228;-60
2022/11/26 12:37:41;;;;;;;9.98;6.15;;;;;;;;;;5065119;28;20058;-61
2022/11/26 12:40:26;;;;;;;10.43;7.18;;;;;;;;;;5071651;28;20127;-61
2022/11/26 12:43:12;;;;;;;11.90;6.40;;;;;;;;;;5068023;28;20044;-61
2022/11/26 12:45:41;;;;;;;12.35;6.72;;;;;;;;;;5065071;28;20079;-61
2022/11/26 12:48:17;;;;;;;10.57;6.25;;;;;;;;;;5069136;28;20523;-61
2022/11/26 12:50:45;;;;;;;12.52;7.00;;;;;;;;;;5062973;28;20483;-61
2022/11/26 12:53:21;;;;;;;14.50;6.82;;;;;;;;;;5071349;28;20055;-61
2022/11/26 12:55:54;;;;;;;10.68;6.60;;;;;;;;;;5060698;28;20048;-61
2022/11/26 12:58:23;;;;;;;14.85;7.53;;;;;;;;;;5056874;28;20051;-61
2022/11/26 13:00:53;;;;;;;15.52;7.93;;;;;;;;;;5061592;28;20094;-61
2022/11/26 13:03:21;;;;;;;11.18;6.35;;;;;;;;;;5061725;28;20472;-61
2022/11/26 13:06:26;;;;;;;9.63;6.30;;;;;;;;;;5080650;28;20040;-61
2022/11/26 13:08:57;;;;;;;10.77;6.65;;;;;;;;;;5031694;28;20060;-61
2022/11/26 13:11:29;;;;;;;11.07;6.83;;;;;;;;;;5029220;28;20088;-61
2022/11/26 13:14:02;;;;;;;11.35;5.13;;;;;;;;;;5045675;28;20809;-61
2022/11/26 13:16:36;;;;;;;6.50;5.18;;;;;;;;;;5067549;28;20036;-61
2022/11/26 13:19:10;;;;;;;5.97;4.18;;;;;;;;;;5067382;28;20127;-61
2022/11/26 13:21:54;;;;;;;7.05;4.15;;;;;;;;;;5065809;28;20059;-61
2022/11/26 13:24:26;;;;;;;5.50;3.90;;;;;;;;;;5068953;28;20053;-61
2022/11/26 13:27:05;;;;;;;8.52;4.85;;;;;;;;;;5100898;27;20036;-61
2022/11/26 13:29:50;;;;;;;8.75;5.03;;;;;;;;;;5067426;28;20139;-62
2022/11/26 13:32:24;;;;;;;8.02;4.30;;;;;;;;;;5066226;28;20499;-61
2022/11/26 13:34:56;;;;;;;6.40;3.90;;;;;;;;;;5066517;28;20038;-61
2022/11/26 13:37:25;;;;;;;6.18;4.07;;;;;;;;;;5070470;28;20530;-61
2022/11/26 13:39:54;;;;;;;6.45;3.85;;;;;;;;;;5064199;28;20059;-61
2022/11/26 13:42:29;;;;;;;7.25;4.10;;;;;;;;;;5067265;28;20579;-61
2022/11/26 13:45:18;;;;;;;9.25;5.60;;;;;;;;;;5067469;28;20047;-61
2022/11/26 13:47:55;;;;;;;10.05;5.00;;;;;;;;;;5066891;28;20534;-61
2022/11/26 13:50:21;;;;;;;8.27;4.43;;;;;;;;;;5070618;28;20127;-61
2022/11/26 13:52:52;;;;;;;6.15;4.65;;;;;;;;;;5070240;28;20471;-61
2022/11/26 13:55:25;;;;;;;7.32;4.70;;;;;;;;;;5067171;28;20059;-62
2022/11/26 13:57:52;;;;;;;7.80;5.20;;;;;;;;;;5071375;28;20046;-61
2022/11/26 14:00:37;;;;;;;5.25;4.75;;;;;;;;;;5066626;28;20091;-62
2022/11/26 14:03:03;;;;;;;4.72;3.85;;;;;;;;;;5072659;28;20036;-61
2022/11/26 14:05:49;;;;;;;5.90;3.70;;;;;;;;;;5068440;28;20082;-61
2022/11/26 14:08:34;;;;;;;8.07;4.90;;;;;;;;;;5066688;28;20406;-61
2022/11/26 14:11:00;;;;;;;7.35;4.80;;;;;;;;;;5064363;28;20052;-61
2022/11/26 14:13:26;;;;;;;6.72;3.63;;;;;;;;;;5071233;28;20057;-61
2022/11/26 14:16:11;;;;;;;7.68;3.55;;;;;;;;;;5067227;28;20098;-61
2022/11/26 14:18:52;;;;;;;5.35;3.53;;;;;;;;;;5072766;28;20119;-61
2022/11/26 14:21:19;;;;;;;3.60;3.00;;;;;;;;;;5070817;28;20044;-61
2022/11/26 14:23:46;;;;;;;2.53;2.33;;;;;;;;;;5072399;28;20035;-61
2022/11/26 14:26:12;;;;;;;5.90;2.97;;;;;;;;;;5065643;28;20105;-61
2022/11/26 14:28:38;;;;;;;2.90;2.70;;;;;;;;;;5069533;28;20036;-61
2022/11/26 14:31:13;;;;;;;11.15;5.25;;;;;;;;;;5071200;28;20052;-61
2022/11/26 14:33:43;;;;;;;7.95;4.70;;;;;;;;;;5069690;28;20487;-61
2022/11/26 14:36:36;;;;;;;6.95;4.03;;;;;;;;;;5063632;28;20394;-61
2022/11/26 14:39:12;;;;;;;5.20;3.53;;;;;;;;;;5066022;28;20071;-61
2022/11/26 14:41:41;;;;;;;5.22;4.20;;;;;;;;;;5067629;28;20040;-61
2022/11/26 14:44:10;;;;;;;4.78;3.40;;;;;;;;;;5066639;28;20510;-61
2022/11/26 14:46:36;;;;;;;4.25;3.05;;;;;;;;;;5067132;28;20511;-61
2022/11/26 14:49:04;;;;;;;2.30;1.77;;;;;;;;;;5067135;28;20514;-61
2022/11/26 14:51:31;;;;;;;3.85;2.45;;;;;;;;;;5061389;28;20041;-61
2022/11/26 14:53:59;;;;;;;3.05;2.25;;;;;;;;;;5067084;28;20442;-61